createdAt,value
2024-01-29T00:00:16.623Z,5.78
2024-01-29T00:02:49.689Z,4.05
2024-01-29T00:05:16.746Z,3.83
2024-01-29T00:07:43.939Z,6.60
2024-01-29T00:10:11.326Z,9.10
2024-01-29T00:12:37.966Z,5.97
2024-01-29T00:15:06.119Z,4.05
2024-01-29T00:17:33.280Z,4.47
2024-01-29T00:20:00.124Z,6.57
2024-01-29T00:22:27.179Z,5.15
2024-01-29T00:24:55.222Z,7.25
2024-01-29T00:27:22.011Z,5.55
2024-01-29T00:29:49.113Z,7.07
2024-01-29T00:32:15.883Z,4.50
2024-01-29T00:34:43.054Z,4.80
2024-01-29T00:37:09.945Z,6.25
2024-01-29T00:39:36.884Z,6.00
2024-01-29T00:42:04.739Z,5.43
2024-01-29T00:44:32.433Z,7.93
2024-01-29T00:47:00.424Z,5.80
2024-01-29T00:49:27.577Z,8.20
2024-01-29T00:51:54.589Z,4.07
2024-01-29T00:54:21.496Z,6.90
2024-01-29T00:56:48.486Z,5.45
2024-01-29T00:59:16.756Z,5.70
2024-01-29T01:01:44.592Z,5.05
2024-01-29T01:04:12.088Z,6.78
2024-01-29T01:06:38.817Z,4.22
2024-01-29T01:09:05.323Z,7.18
2024-01-29T01:11:32.251Z,6.70
2024-01-29T01:13:59.593Z,4.75
2024-01-29T01:16:26.158Z,4.88
2024-01-29T01:18:52.699Z,7.28
2024-01-29T01:21:19.341Z,6.07
2024-01-29T01:23:45.963Z,5.63
2024-01-29T01:26:12.511Z,5.60
2024-01-29T01:28:39.184Z,8.00
2024-01-29T01:31:06.076Z,5.22
2024-01-29T01:33:32.690Z,4.07
2024-01-29T01:35:59.589Z,3.45
2024-01-29T01:38:26.220Z,6.53
2024-01-29T01:40:52.742Z,7.13
2024-01-29T01:43:22.153Z,4.20
2024-01-29T01:46:05.050Z,4.97
2024-01-29T01:48:33.606Z,6.25
2024-01-29T01:51:01.108Z,3.47
2024-01-29T01:53:31.849Z,5.18
2024-01-29T01:56:00.109Z,2.30
2024-01-29T01:58:28.685Z,5.55
2024-01-29T02:00:57.328Z,8.07
2024-01-29T02:03:28.243Z,5.18
2024-01-29T02:05:56.442Z,4.97
2024-01-29T02:08:25.049Z,3.75
2024-01-29T02:10:54.261Z,5.35
2024-01-29T02:13:21.126Z,5.38
2024-01-29T02:15:47.667Z,4.65
2024-01-29T02:18:14.348Z,4.25
2024-01-29T02:20:42.201Z,4.90
2024-01-29T02:23:08.845Z,4.05
2024-01-29T02:25:35.439Z,6.07
2024-01-29T02:28:02.535Z,2.88
2024-01-29T02:30:29.897Z,7.78
2024-01-29T02:32:56.642Z,4.18
2024-01-29T02:35:24.156Z,3.15
2024-01-29T02:37:50.664Z,4.95
2024-01-29T02:40:17.908Z,6.85
2024-01-29T02:42:44.499Z,2.95
2024-01-29T02:45:11.021Z,3.22
2024-01-29T02:47:37.569Z,5.32
2024-01-29T02:50:04.767Z,4.97
2024-01-29T02:52:31.347Z,4.68
2024-01-29T02:54:58.155Z,4.65
2024-01-29T02:57:24.852Z,5.70
2024-01-29T02:59:52.280Z,3.03
2024-01-29T03:02:18.851Z,7.55
2024-01-29T03:04:45.534Z,6.25
2024-01-29T03:07:12.208Z,5.85
2024-01-29T03:09:38.916Z,5.05
2024-01-29T03:12:05.980Z,5.10
2024-01-29T03:14:33.604Z,8.60
2024-01-29T03:17:00.770Z,2.58
2024-01-29T03:19:28.332Z,5.93
2024-01-29T03:21:55.066Z,3.35
2024-01-29T03:24:21.918Z,3.78
2024-01-29T03:26:48.767Z,5.20
2024-01-29T03:29:15.895Z,3.78
2024-01-29T03:31:42.673Z,7.03
2024-01-29T03:34:09.933Z,5.75
2024-01-29T03:36:36.534Z,7.43
2024-01-29T03:39:03.602Z,6.05
2024-01-29T03:41:32.178Z,9.30
2024-01-29T03:43:59.839Z,4.07
2024-01-29T03:46:26.345Z,9.88
2024-01-29T03:48:53.029Z,6.50
2024-01-29T03:51:19.647Z,5.20
2024-01-29T03:53:46.248Z,5.70
2024-01-29T03:56:12.798Z,6.10
2024-01-29T03:58:39.919Z,8.70
2024-01-29T04:01:06.630Z,2.42
2024-01-29T04:03:33.554Z,6.18
2024-01-29T04:06:00.729Z,5.82
2024-01-29T04:08:27.241Z,6.72
2024-01-29T04:10:54.672Z,5.47
2024-01-29T04:13:21.128Z,8.52
2024-01-29T04:15:47.622Z,5.75
2024-01-29T04:18:14.297Z,5.47
2024-01-29T04:20:40.881Z,4.43
2024-01-29T04:23:07.372Z,6.65
2024-01-29T04:25:33.973Z,3.88
2024-01-29T04:28:00.525Z,5.88
2024-01-29T04:30:27.113Z,5.50
2024-01-29T04:32:53.830Z,4.93
2024-01-29T04:35:21.896Z,3.88
2024-01-29T04:37:48.430Z,4.20
2024-01-29T04:40:15.208Z,6.63
2024-01-29T04:42:41.988Z,5.30
2024-01-29T04:45:09.052Z,5.40
2024-01-29T04:47:35.928Z,5.68
2024-01-29T04:50:03.090Z,6.38
2024-01-29T04:52:29.672Z,5.53
2024-01-29T04:54:56.420Z,5.97
2024-01-29T04:57:24.058Z,5.80
2024-01-29T04:59:50.889Z,4.38
2024-01-29T05:02:17.509Z,3.58
2024-01-29T05:04:44.261Z,8.63
2024-01-29T05:07:10.911Z,4.57
2024-01-29T05:09:37.465Z,2.50
2024-01-29T05:12:04.273Z,8.13
2024-01-29T05:14:30.730Z,4.32
2024-01-29T05:16:57.250Z,7.60
2024-01-29T05:19:24.229Z,8.63
2024-01-29T05:21:51.192Z,7.82
2024-01-29T05:24:17.696Z,7.38
2024-01-29T05:26:44.403Z,9.63
2024-01-29T05:29:10.888Z,5.72
2024-01-29T05:31:37.502Z,6.65
2024-01-29T05:34:04.265Z,5.28
2024-01-29T05:36:31.135Z,5.47
2024-01-29T05:38:57.770Z,5.63
2024-01-29T05:41:24.793Z,5.63
2024-01-29T05:43:51.334Z,8.88
2024-01-29T05:46:17.898Z,6.43
2024-01-29T05:48:44.612Z,5.55
2024-01-29T05:51:11.221Z,6.60
2024-01-29T05:53:37.756Z,7.85
2024-01-29T05:56:05.969Z,5.70
2024-01-29T05:58:32.445Z,6.18
2024-01-29T06:00:59.209Z,5.82
2024-01-29T06:03:26.023Z,7.40
2024-01-29T06:05:52.821Z,5.97
2024-01-29T06:08:19.466Z,4.63
2024-01-29T06:10:48.006Z,8.68
2024-01-29T06:13:16.065Z,6.30
2024-01-29T06:15:42.652Z,8.45
2024-01-29T06:18:09.265Z,8.90
2024-01-29T06:20:35.993Z,5.70
2024-01-29T06:23:02.606Z,5.22
2024-01-29T06:25:29.536Z,7.88
2024-01-29T06:27:56.098Z,8.07
2024-01-29T06:30:22.625Z,2.67
2024-01-29T06:32:49.556Z,7.18
2024-01-29T06:35:16.241Z,5.90
2024-01-29T06:37:42.801Z,6.57
2024-01-29T06:40:09.816Z,7.03
2024-01-29T06:42:36.601Z,7.97
2024-01-29T06:45:03.363Z,5.43
2024-01-29T06:47:29.980Z,5.80
2024-01-29T06:49:57.945Z,14.20
2024-01-29T06:52:26.826Z,10.60
2024-01-29T06:54:54.926Z,6.57
2024-01-29T06:57:22.657Z,8.32
2024-01-29T06:59:49.611Z,7.80
2024-01-29T07:02:18.246Z,7.07
2024-01-29T07:04:46.163Z,11.27
2024-01-29T07:07:13.361Z,6.13
2024-01-29T07:09:41.860Z,7.13
2024-01-29T07:12:09.563Z,6.78
2024-01-29T07:14:38.807Z,5.90
2024-01-29T07:17:06.997Z,10.65
2024-01-29T07:19:33.837Z,6.60
2024-01-29T07:22:01.772Z,7.30
2024-01-29T07:24:29.699Z,5.13
2024-01-29T07:26:57.692Z,7.15
2024-01-29T07:29:26.554Z,9.43
2024-01-29T07:31:54.376Z,7.95
2024-01-29T07:34:21.547Z,8.73
2024-01-29T07:36:48.715Z,7.03
2024-01-29T07:39:15.702Z,7.68
2024-01-29T07:41:43.354Z,5.63
2024-01-29T07:44:11.153Z,6.00
2024-01-29T07:46:38.488Z,7.00
2024-01-29T07:49:06.140Z,6.13
2024-01-29T07:51:33.252Z,7.97
2024-01-29T07:54:00.614Z,6.47
2024-01-29T07:56:28.280Z,9.15
2024-01-29T07:58:55.072Z,10.25
2024-01-29T08:01:21.938Z,7.72
2024-01-29T08:03:49.037Z,10.20
2024-01-29T08:06:15.798Z,5.35
2024-01-29T08:08:42.831Z,10.52
2024-01-29T08:11:12.594Z,6.60
2024-01-29T08:13:41.041Z,3.97
2024-01-29T08:16:08.265Z,5.45
2024-01-29T08:18:36.598Z,7.10
2024-01-29T08:21:03.837Z,8.43
2024-01-29T08:23:31.083Z,4.75
2024-01-29T08:25:58.311Z,7.45
2024-01-29T08:28:25.381Z,4.55
2024-01-29T08:30:52.581Z,6.88
2024-01-29T08:33:19.685Z,2.67
2024-01-29T08:35:47.250Z,7.78
2024-01-29T08:38:14.260Z,7.55
2024-01-29T08:40:40.979Z,9.13
2024-01-29T08:43:07.669Z,11.07
2024-01-29T08:45:35.421Z,8.13
2024-01-29T08:48:02.898Z,7.25
2024-01-29T08:50:29.771Z,4.70
2024-01-29T08:52:56.668Z,8.00
2024-01-29T08:55:24.295Z,9.13
2024-01-29T08:57:51.659Z,5.75
2024-01-29T09:00:18.516Z,8.07
2024-01-29T09:02:46.541Z,6.57
2024-01-29T09:05:13.166Z,10.10
2024-01-29T09:07:40.477Z,5.40
2024-01-29T09:10:07.848Z,5.82
2024-01-29T09:12:34.850Z,9.05
2024-01-29T09:15:01.491Z,6.95
2024-01-29T09:17:28.179Z,5.53
2024-01-29T09:19:54.941Z,5.47
2024-01-29T09:22:21.578Z,6.80
2024-01-29T09:24:48.297Z,6.22
2024-01-29T09:27:14.922Z,9.02
2024-01-29T09:29:41.550Z,7.78
2024-01-29T09:32:10.854Z,9.20
2024-01-29T09:34:37.451Z,6.00
2024-01-29T09:37:04.306Z,6.72
2024-01-29T09:39:34.003Z,8.85
2024-01-29T09:42:06.154Z,4.43
2024-01-29T09:44:39.256Z,5.13
2024-01-29T09:47:06.982Z,5.18
2024-01-29T09:49:38.432Z,9.38
2024-01-29T09:52:07.206Z,7.63
2024-01-29T09:54:34.973Z,8.10
2024-01-29T09:57:01.901Z,7.18
2024-01-29T09:59:31.426Z,7.47
2024-01-29T10:02:01.418Z,8.45
2024-01-29T10:04:28.979Z,6.80
2024-01-29T10:06:56.883Z,9.52
2024-01-29T10:09:23.889Z,7.90
2024-01-29T10:11:51.059Z,8.90
2024-01-29T10:14:18.249Z,8.45
2024-01-29T10:16:44.830Z,8.68
2024-01-29T10:19:11.868Z,8.27
2024-01-29T10:21:39.826Z,9.10
2024-01-29T10:24:13.493Z,9.55
2024-01-29T10:26:44.025Z,7.80
2024-01-29T10:29:11.661Z,9.82
2024-01-29T10:35:32.386Z,9.02
2024-01-29T10:38:06.428Z,8.73
2024-01-29T10:40:38.758Z,6.47
2024-01-29T10:43:16.610Z,8.40
2024-01-29T10:45:46.891Z,8.80
2024-01-29T10:48:16.888Z,7.35
2024-01-29T10:50:45.189Z,8.30
2024-01-29T10:53:12.978Z,6.43
2024-01-29T10:55:43.800Z,10.00
2024-01-29T11:00:41.110Z,8.95
2024-01-29T11:03:08.952Z,6.80
2024-01-29T11:05:38.079Z,7.88
2024-01-29T11:08:10.284Z,10.43
2024-01-29T11:10:36.886Z,11.38
2024-01-29T11:13:07.089Z,9.00
2024-01-29T11:15:33.975Z,8.52
2024-01-29T11:18:01.047Z,8.88
2024-01-29T11:20:31.378Z,9.10
2024-01-29T11:22:58.940Z,8.35
2024-01-29T11:25:26.977Z,7.85
2024-01-29T11:27:55.827Z,9.15
2024-01-29T11:30:24.573Z,9.23
2024-01-29T11:32:52.351Z,8.27
2024-01-29T11:35:28.506Z,7.30
2024-01-29T11:38:09.872Z,7.35
2024-01-29T11:40:38.965Z,10.15
2024-01-29T11:43:20.154Z,7.65
2024-01-29T11:45:51.767Z,8.55
2024-01-29T11:48:21.274Z,10.95
2024-01-29T11:50:50.599Z,7.53
2024-01-29T11:53:21.506Z,8.50
2024-01-29T11:55:49.516Z,6.68
2024-01-29T11:58:21.311Z,6.25
2024-01-29T12:00:50.063Z,8.95
2024-01-29T12:03:21.807Z,7.68
2024-01-29T12:05:49.816Z,7.45
2024-01-29T12:08:21.479Z,8.05
2024-01-29T12:10:49.330Z,10.50
2024-01-29T12:13:20.019Z,7.65
2024-01-29T12:18:20.303Z,9.27
2024-01-29T12:23:15.195Z,7.28
2024-01-29T12:25:41.859Z,8.00
2024-01-29T12:28:10.447Z,8.43
2024-01-29T12:30:37.495Z,8.73
2024-01-29T12:33:04.957Z,7.35
2024-01-29T12:35:32.781Z,7.30
2024-01-29T12:38:06.138Z,10.25
2024-01-29T12:40:33.481Z,7.78
2024-01-29T12:43:04.956Z,9.38
2024-01-29T12:49:24.990Z,7.45
2024-01-29T12:51:52.898Z,7.93
2024-01-29T12:54:20.576Z,6.90
2024-01-29T12:56:52.965Z,9.30
2024-01-29T12:59:20.266Z,9.18
2024-01-29T13:01:47.704Z,7.80
2024-01-29T13:04:14.500Z,9.32
2024-01-29T13:06:42.143Z,8.20
2024-01-29T13:09:09.139Z,9.13
2024-01-29T13:11:35.696Z,5.72
2024-01-29T13:14:02.267Z,7.13
2024-01-29T13:16:29.536Z,8.63
2024-01-29T13:18:57.974Z,8.85
2024-01-29T13:21:25.231Z,7.20
2024-01-29T13:23:51.734Z,10.10
2024-01-29T13:26:19.439Z,7.82
2024-01-29T13:28:46.249Z,14.45
2024-01-29T13:31:12.916Z,10.38
2024-01-29T13:33:39.574Z,8.40
2024-01-29T13:36:07.575Z,9.43
2024-01-29T13:38:34.159Z,11.55
2024-01-29T13:41:00.701Z,9.00
2024-01-29T13:43:27.419Z,10.57
2024-01-29T13:45:54.408Z,9.07
2024-01-29T13:48:22.161Z,8.73
2024-01-29T13:50:48.702Z,7.47
2024-01-29T13:53:15.378Z,9.23
2024-01-29T13:55:42.122Z,8.27
2024-01-29T13:58:08.719Z,10.05
2024-01-29T14:00:35.439Z,8.13
2024-01-29T14:03:02.004Z,7.35
2024-01-29T14:05:28.688Z,6.53
2024-01-29T14:07:55.671Z,9.07
2024-01-29T14:10:22.448Z,8.38
2024-01-29T14:12:49.333Z,6.70
2024-01-29T14:15:15.954Z,7.53
2024-01-29T14:17:43.782Z,8.98
2024-01-29T14:20:10.671Z,6.68
2024-01-29T14:22:37.295Z,8.43
2024-01-29T14:25:04.246Z,10.07
2024-01-29T14:27:31.449Z,8.38
2024-01-29T14:29:58.102Z,5.65
2024-01-29T14:32:24.655Z,7.63
2024-01-29T14:34:51.348Z,7.32
2024-01-29T14:37:18.181Z,7.50
2024-01-29T14:39:44.831Z,7.43
2024-01-29T14:42:11.348Z,8.57
2024-01-29T14:44:38.025Z,10.43
2024-01-29T14:47:04.577Z,6.30
2024-01-29T14:49:31.149Z,13.65
2024-01-29T14:51:58.194Z,7.20
2024-01-29T14:54:25.208Z,7.95
2024-01-29T14:56:52.455Z,10.60
2024-01-29T14:59:19.129Z,7.70
2024-01-29T15:01:45.815Z,6.43
2024-01-29T15:04:13.350Z,8.65
2024-01-29T15:06:41.803Z,6.45
2024-01-29T15:09:08.458Z,8.68
2024-01-29T15:11:35.067Z,10.07
2024-01-29T15:14:01.888Z,10.10
2024-01-29T15:16:28.400Z,15.20
2024-01-29T15:18:55.181Z,10.32
2024-01-29T15:21:21.907Z,9.60
2024-01-29T15:23:48.441Z,8.43
2024-01-29T15:26:15.397Z,8.25
2024-01-29T15:28:42.917Z,7.70
2024-01-29T15:31:13.595Z,9.40
2024-01-29T15:33:41.888Z,8.88
2024-01-29T15:36:08.795Z,11.25
2024-01-29T15:38:35.303Z,11.23
2024-01-29T15:41:01.871Z,16.10
2024-01-29T15:43:28.525Z,13.80
2024-01-29T15:45:55.005Z,13.27
2024-01-29T15:48:21.554Z,9.55
2024-01-29T15:50:48.125Z,10.95
2024-01-29T15:53:14.589Z,13.38
2024-01-29T15:55:42.134Z,9.73
2024-01-29T15:58:10.212Z,11.88
2024-01-29T16:00:40.186Z,19.15
2024-01-29T16:03:07.008Z,28.27
2024-01-29T16:05:34.215Z,30.92
2024-01-29T16:08:05.249Z,23.92
2024-01-29T16:10:31.766Z,23.25
2024-01-29T16:12:58.269Z,26.52
2024-01-29T16:15:24.850Z,19.17
2024-01-29T16:17:51.359Z,22.48
2024-01-29T16:20:18.217Z,18.67
2024-01-29T16:22:44.814Z,7.88
2024-01-29T16:25:17.512Z,12.02
2024-01-29T16:27:44.416Z,11.52
2024-01-29T16:30:11.327Z,10.65
2024-01-29T16:32:37.953Z,10.23
2024-01-29T16:35:05.991Z,16.90
2024-01-29T16:37:33.396Z,8.70
2024-01-29T16:40:00.529Z,11.57
2024-01-29T16:42:27.231Z,11.23
2024-01-29T16:44:53.818Z,12.55
2024-01-29T16:47:20.294Z,5.60
2024-01-29T16:49:46.964Z,6.93
2024-01-29T16:52:13.578Z,8.55
2024-01-29T16:54:40.387Z,9.68
2024-01-29T16:57:07.177Z,16.52
2024-01-29T16:59:35.094Z,15.52
2024-01-29T17:02:01.845Z,14.35
2024-01-29T17:04:28.717Z,10.05
2024-01-29T17:06:55.308Z,9.23
2024-01-29T17:09:22.943Z,6.45
2024-01-29T17:11:49.466Z,7.57
2024-01-29T17:14:15.968Z,7.22
2024-01-29T17:16:43.065Z,7.75
2024-01-29T17:19:09.654Z,8.70
2024-01-29T17:21:36.238Z,11.25
2024-01-29T17:24:02.929Z,9.75
2024-01-29T17:26:30.056Z,9.35
2024-01-29T17:28:56.620Z,8.30
2024-01-29T17:31:23.254Z,7.63
2024-01-29T17:33:49.880Z,7.57
2024-01-29T17:36:16.488Z,4.50
2024-01-29T17:38:43.063Z,9.23
2024-01-29T17:41:09.738Z,5.72
2024-01-29T17:43:36.305Z,7.90
2024-01-29T17:46:02.881Z,11.35
2024-01-29T17:48:29.649Z,6.72
2024-01-29T17:50:56.303Z,7.22
2024-01-29T17:53:24.404Z,7.28
2024-01-29T17:55:52.090Z,11.35
2024-01-29T17:58:18.679Z,6.30
2024-01-29T18:00:45.336Z,10.10
2024-01-29T18:03:11.952Z,12.68
2024-01-29T18:05:41.157Z,21.52
2024-01-29T18:08:07.836Z,17.33
2024-01-29T18:10:34.486Z,14.88
2024-01-29T18:13:01.081Z,19.33
2024-01-29T18:15:29.888Z,13.73
2024-01-29T18:17:57.339Z,12.25
2024-01-29T18:20:23.962Z,14.88
2024-01-29T18:22:50.459Z,11.75
2024-01-29T18:25:17.275Z,12.23
2024-01-29T18:27:43.946Z,9.20
2024-01-29T18:30:10.993Z,6.80
2024-01-29T18:32:37.824Z,8.98
2024-01-29T18:35:04.985Z,8.23
2024-01-29T18:37:31.892Z,8.10
2024-01-29T18:40:01.125Z,8.48
2024-01-29T18:42:27.924Z,13.25
2024-01-29T18:44:54.445Z,8.02
2024-01-29T18:47:21.076Z,10.07
2024-01-29T18:49:53.457Z,7.80
2024-01-29T18:52:21.199Z,8.77
2024-01-29T18:54:47.878Z,8.27
2024-01-29T18:57:14.520Z,10.98
2024-01-29T18:59:41.111Z,8.45
2024-01-29T19:02:08.014Z,8.77
2024-01-29T19:04:34.831Z,9.48
2024-01-29T19:07:01.642Z,9.82
2024-01-29T19:09:28.219Z,10.43
2024-01-29T19:11:54.751Z,11.55
2024-01-29T19:14:21.367Z,7.43
2024-01-29T19:16:47.994Z,10.65
2024-01-29T19:19:14.582Z,12.18
2024-01-29T19:21:41.265Z,10.68
2024-01-29T19:24:08.178Z,9.25
2024-01-29T19:26:34.629Z,9.25
2024-01-29T19:29:01.142Z,8.75
2024-01-29T19:31:27.782Z,9.73
2024-01-29T19:33:54.493Z,10.30
2024-01-29T19:36:21.389Z,9.18
2024-01-29T19:38:47.976Z,8.13
2024-01-29T19:41:14.836Z,9.82
2024-01-29T19:43:41.372Z,10.75
2024-01-29T19:46:08.176Z,11.10
2024-01-29T19:48:34.728Z,8.70
2024-01-29T19:51:01.404Z,10.00
2024-01-29T19:53:28.004Z,10.48
2024-01-29T19:55:54.786Z,8.48
2024-01-29T19:58:21.673Z,8.57
2024-01-29T20:00:48.634Z,12.77
2024-01-29T20:03:15.602Z,8.52
2024-01-29T20:05:42.354Z,11.25
2024-01-29T20:08:09.271Z,9.50
2024-01-29T20:10:35.894Z,10.77
2024-01-29T20:13:02.914Z,10.48
2024-01-29T20:15:29.491Z,10.65
2024-01-29T20:17:56.027Z,9.90
2024-01-29T20:20:22.690Z,12.80
2024-01-29T20:22:49.288Z,11.45
2024-01-29T20:25:16.159Z,11.13
2024-01-29T20:27:45.971Z,12.57
2024-01-29T20:30:13.901Z,12.43
2024-01-29T20:32:41.136Z,12.35
2024-01-29T20:35:08.071Z,15.50
2024-01-29T20:37:34.734Z,14.30
2024-01-29T20:40:01.377Z,11.13
2024-01-29T20:42:28.187Z,11.45
2024-01-29T20:44:54.884Z,16.10
2024-01-29T20:47:23.888Z,9.57
2024-01-29T20:49:50.620Z,10.35
2024-01-29T20:52:18.105Z,12.40
2024-01-29T20:54:44.908Z,12.25
2024-01-29T20:57:11.533Z,9.48
2024-01-29T20:59:38.058Z,12.20
2024-01-29T21:02:05.153Z,11.38
2024-01-29T21:04:31.952Z,13.52
2024-01-29T21:06:58.526Z,11.02
2024-01-29T21:09:25.095Z,11.80
2024-01-29T21:11:53.839Z,12.30
2024-01-29T21:14:20.424Z,11.82
2024-01-29T21:16:46.964Z,10.52
2024-01-29T21:19:13.947Z,10.98
2024-01-29T21:21:44.007Z,9.50
2024-01-29T21:24:10.866Z,14.75
2024-01-29T21:26:37.527Z,10.38
2024-01-29T21:29:04.051Z,9.05
2024-01-29T21:31:30.886Z,11.02
2024-01-29T21:33:57.543Z,10.07
2024-01-29T21:36:24.236Z,11.88
2024-01-29T21:38:50.721Z,9.00
2024-01-29T21:41:17.491Z,10.45
2024-01-29T21:43:46.804Z,9.68
2024-01-29T21:46:13.416Z,10.40
2024-01-29T21:48:40.253Z,10.60
2024-01-29T21:51:08.553Z,9.68
2024-01-29T21:53:35.192Z,10.18
2024-01-29T21:56:01.838Z,13.73
2024-01-29T21:58:28.808Z,11.27
2024-01-29T22:00:55.624Z,10.75
2024-01-29T22:03:22.618Z,16.13
2024-01-29T22:05:49.147Z,11.35
2024-01-29T22:08:16.021Z,10.57
2024-01-29T22:10:43.056Z,13.52
2024-01-29T22:13:09.762Z,14.35
2024-01-29T22:15:36.441Z,10.38
2024-01-29T22:18:03.075Z,9.55
2024-01-29T22:20:29.594Z,11.10
2024-01-29T22:22:56.092Z,13.77
2024-01-29T22:25:22.746Z,14.38
2024-01-29T22:27:49.307Z,10.32
2024-01-29T22:30:17.312Z,11.25
2024-01-29T22:32:43.903Z,11.88
2024-01-29T22:35:10.811Z,11.20
2024-01-29T22:37:37.729Z,10.27
2024-01-29T22:40:04.728Z,9.93
2024-01-29T22:42:31.495Z,14.13
2024-01-29T22:44:57.993Z,12.25
2024-01-29T22:47:24.513Z,10.07
2024-01-29T22:49:51.163Z,9.75
2024-01-29T22:52:17.853Z,9.48
2024-01-29T22:54:44.361Z,11.30
2024-01-29T22:57:10.927Z,9.32
2024-01-29T22:59:37.542Z,13.30
2024-01-29T23:02:04.841Z,12.32
2024-01-29T23:04:31.447Z,11.57
2024-01-29T23:06:58.223Z,12.50
2024-01-29T23:09:24.776Z,12.23
2024-01-29T23:11:51.432Z,15.93
2024-01-29T23:14:17.980Z,10.35
2024-01-29T23:16:44.626Z,12.00
2024-01-29T23:19:11.233Z,11.40
2024-01-29T23:21:37.877Z,12.90
2024-01-29T23:24:04.855Z,9.52
2024-01-29T23:26:31.410Z,9.60
2024-01-29T23:28:58.761Z,10.13
2024-01-29T23:31:25.838Z,12.10
2024-01-29T23:33:52.744Z,11.20
2024-01-29T23:36:19.377Z,9.75
2024-01-29T23:38:45.954Z,12.65
2024-01-29T23:41:12.460Z,8.27
2024-01-29T23:43:39.166Z,9.70
2024-01-29T23:46:06.424Z,11.73
2024-01-29T23:48:33.113Z,10.35
2024-01-29T23:50:59.790Z,10.55
2024-01-29T23:53:26.477Z,11.52
2024-01-29T23:55:52.922Z,11.65
2024-01-29T23:58:19.638Z,10.10
